Aeroporto :
LOGIN :

Iscrizione | Disclaimer

   EN    FR    IT 

 










Sommario :    VFR   VFR Marginale   IFR   IFR Intensivo   IFR Molto Intensivo
Visibilità : 
Base nubi : 
>= 8 km
>= 3000ft
5 / 8 km
1000 / 3000 ft
1500m / 5 km
500 / 1000 ft
800 / 1500m
200 / 500 ft
< 800m
< 200 ft
Simboli :   Temporali  Nebbia  Neve Forte  Precipitazioni Forti  Vento > 20 kt
SIGMETs :   Varie  Temporali  Ghiacco  Turbolenza  Onda orograficha  Ceneri Vulcaniche






- Altitudine del aeroporto : 80 ft
- Codice IATA : LPL


EGGP - Liverpool John Lennon

ULTIMO METAR :
  • 221550Z 22006KT 9999 FEW023 SCT030 13/10 Q1020

METARs OBSOLETI :
  • 221520Z 23006KT 9999 FEW030 SCT032 13/09 Q1020
  • 221450Z 23007KT 9999 FEW030 SCT035 13/10 Q1020
  • 221420Z 20006KT 160V240 9999 SCT030 SCT035 13/10 Q1020
  • 221350Z 20007KT 9999 SCT025 SCT036 12/10 Q1021
  • 221320Z 20007KT 9999 SCT026 SCT031 12/10 Q1021

TAF TAF EGGP
Valido dal 22 a 12 ore il 23 a 12 ore UTC


221057Z 2212/2312 19005KT 9999 SCT030
BECMG 2212/2215 25010KT
BECMG 2215/2218 19004KT
PROB30
TEMPO 2307/2311 BKN007
ATIS : +44 151 907 2000 (option 5 or ext 5150)
Met : +44 871 750 5150



MetMap, La meteo Aeronautica in un colpo d'occhio ! - Copyright ORBIFLY Dicembre 2007 - Disclaimer

ORBIFLY MET'MAP TEAM :

Programmazione e sviluppo : Alexandra Zaïnal
Concezione e sviluppo : Baudouin d'Aumeries
Co-Programmazione e sviluppo : Marc-Olivier Méhu
Supporto tecnico e logistico : Manuel Goepfert
Aiuto per la traduzione : Arnaldo La Scala

Contatto : metmap@orbifly.com




FONTI E CREDITI :

   NOAA